Time;durP1;ratioP1;P1;durP2;ratioP2;P2;SDS_P1;SDS_P2;PMS_P1;PMS_P2;Temp;Humidity;BMP_temperature;BMP_pressure;BME280_temperature;BME280_humidity;BME280_pressure;Samples;Min_cycle;Max_cycle;Signal;HPM_P1;HPM_P2
2023/12/16 00:00:47;;;;;;;41.90;25.00;;;;;;;3.17;92.28;101596.30;103329;1253;97708;-77
2023/12/16 00:03:33;;;;;;;41.00;24.00;;;;;;;3.16;92.59;101603.83;103771;1256;108019;-77
2023/12/16 00:06:01;;;;;;;42.70;24.90;;;;;;;3.16;92.67;101604.86;103669;1257;97813;-77
2023/12/16 00:08:28;;;;;;;40.60;23.30;;;;;;;3.20;92.81;101605.63;102620;1253;1003096;-76
2023/12/16 00:10:56;;;;;;;41.40;23.90;;;;;;;3.21;92.60;101605.83;102742;1257;1003081;-76
2023/12/16 00:13:23;;;;;;;38.30;23.70;;;;;;;3.26;92.63;101606.46;103292;1253;139739;-77
2023/12/16 00:15:50;;;;;;;38.80;23.30;;;;;;;3.29;92.82;101605.32;103516;1259;108905;-76
2023/12/16 00:18:17;;;;;;;39.90;23.60;;;;;;;3.33;92.82;101610.54;103219;1254;97749;-75
2023/12/16 00:20:45;;;;;;;44.40;26.90;;;;;;;3.36;92.84;101617.29;102974;1254;138013;-76
2023/12/16 00:23:12;;;;;;;43.00;25.90;;;;;;;3.36;92.85;101606.81;103282;1260;106865;-75
2023/12/16 00:25:39;;;;;;;44.70;25.60;;;;;;;3.37;93.03;101602.87;103208;1258;137807;-77
2023/12/16 00:28:06;;;;;;;48.80;25.80;;;;;;;3.35;92.70;101601.45;103304;1254;107264;-76
2023/12/16 00:30:32;;;;;;;44.70;26.30;;;;;;;3.32;92.59;101597.45;103328;1253;97701;-75
2023/12/16 00:32:59;;;;;;;45.40;27.30;;;;;;;3.32;93.06;101594.70;103314;1254;138892;-75
2023/12/16 00:35:27;;;;;;;46.60;27.10;;;;;;;3.33;93.30;101600.55;103285;1258;107191;-74
2023/12/16 00:37:54;;;;;;;52.30;29.00;;;;;;;3.37;93.38;101610.25;103251;1253;138420;-75
2023/12/16 00:40:20;;;;;;;54.70;30.90;;;;;;;3.36;93.33;101613.86;102620;1256;1003531;-76
2023/12/16 00:42:47;;;;;;;54.10;32.00;;;;;;;3.34;93.10;101617.44;103528;1253;97845;-77
2023/12/16 00:45:14;;;;;;;62.20;33.10;;;;;;;3.33;93.15;101619.65;103223;1256;137597;-75
2023/12/16 00:47:44;;;;;;;58.50;31.40;;;;;;;3.28;93.49;101620.07;103011;1256;1003034;-75
2023/12/16 00:50:12;;;;;;;63.30;31.40;;;;;;;3.23;93.16;101617.56;102612;1257;1003402;-76
2023/12/16 00:52:39;;;;;;;55.40;30.50;;;;;;;3.17;93.39;101624.83;103742;1253;107689;-76
2023/12/16 00:55:07;;;;;;;60.80;32.80;;;;;;;3.18;93.97;101626.73;103516;1254;141047;-74
2023/12/16 00:57:34;;;;;;;54.60;31.10;;;;;;;3.17;94.20;101626.89;104157;1253;111905;-74
2023/12/16 01:00:02;;;;;;;61.30;32.70;;;;;;;3.16;94.26;101627.05;103648;1256;107737;-74
2023/12/16 01:02:29;;;;;;;59.50;32.20;;;;;;;3.19;94.57;101625.89;103162;1259;139073;-74
2023/12/16 01:04:56;;;;;;;61.40;31.60;;;;;;;3.23;94.79;101630.98;103303;1255;108019;-75
2023/12/16 01:07:23;;;;;;;59.50;32.30;;;;;;;3.31;95.03;101642.48;103157;1259;139551;-74
2023/12/16 01:09:52;;;;;;;57.60;31.80;;;;;;;3.34;94.98;101647.01;103192;1253;111340;-75
2023/12/16 01:12:19;;;;;;;59.50;33.20;;;;;;;3.36;94.81;101642.22;103352;1257;107781;-74
2023/12/16 01:14:46;;;;;;;65.40;34.60;;;;;;;3.36;94.56;101641.17;103144;1259;138172;-75
2023/12/16 01:17:12;;;;;;;63.90;33.60;;;;;;;3.33;94.72;101636.33;102570;1253;1004363;-74
2023/12/16 01:19:39;;;;;;;63.70;32.50;;;;;;;3.31;94.79;101633.88;101747;1256;1154157;-75
2023/12/16 01:22:06;;;;;;;60.90;32.00;;;;;;;3.32;94.88;101633.05;103325;1257;111022;-75
2023/12/16 01:24:36;;;;;;;61.50;33.10;;;;;;;3.30;94.77;101629.91;103273;1257;107021;-74
2023/12/16 01:27:03;;;;;;;60.50;32.40;;;;;;;3.28;95.02;101627.64;103218;1259;138605;-75
2023/12/16 01:29:30;;;;;;;61.30;31.70;;;;;;;3.26;94.91;101627.26;101628;1254;1003006;-73
2023/12/16 01:31:57;;;;;;;61.80;32.30;;;;;;;3.24;95.39;101622.75;103153;1253;139001;-73
2023/12/16 01:34:24;;;;;;;61.50;32.00;;;;;;;3.28;95.45;101618.18;103267;1257;111368;-74
2023/12/16 01:36:51;;;;;;;55.60;29.00;;;;;;;3.27;95.45;101616.11;103290;1259;107181;-74
2023/12/16 01:39:18;;;;;;;62.70;30.50;;;;;;;3.28;95.50;101616.12;103225;1254;140246;-74
2023/12/16 01:41:44;;;;;;;56.40;30.60;;;;;;;3.29;95.57;101619.75;103298;1257;108937;-74
2023/12/16 01:44:11;;;;;;;63.40;31.10;;;;;;;3.31;95.69;101621.50;103199;1254;139007;-74
2023/12/16 01:46:38;;;;;;;63.90;31.70;;;;;;;3.31;95.62;101623.75;103345;1254;110863;-74
2023/12/16 01:49:06;;;;;;;63.90;30.50;;;;;;;3.34;95.62;101626.88;103169;1257;139168;-74
2023/12/16 01:51:33;;;;;;;60.10;31.30;;;;;;;3.35;95.83;101629.30;102634;1256;1003080;-73
2023/12/16 01:54:01;;;;;;;59.30;30.60;;;;;;;3.38;95.82;101635.38;103305;1254;108203;-74
2023/12/16 01:56:30;;;;;;;66.40;32.40;;;;;;;3.40;95.79;101635.08;103174;1259;139350;-73
2023/12/16 01:58:57;;;;;;;65.80;32.70;;;;;;;3.37;95.36;101630.02;103394;1262;110908;-74
2023/12/16 02:01:24;;;;;;;60.80;31.10;;;;;;;3.31;95.48;101627.52;103302;1255;138394;-74
2023/12/16 02:03:53;;;;;;;62.70;31.30;;;;;;;3.27;95.79;101626.76;103512;1254;97781;-74
2023/12/16 02:06:21;;;;;;;59.90;29.60;;;;;;;3.24;95.93;101622.23;103200;1257;1002206;-74
2023/12/16 02:08:49;;;;;;;61.40;30.10;;;;;;;3.23;96.08;101624.27;103178;1254;138786;-74
2023/12/16 02:11:15;;;;;;;59.30;29.30;;;;;;;3.23;96.35;101623.23;104163;1253;111346;-75
2023/12/16 02:13:43;;;;;;;56.10;28.40;;;;;;;3.23;96.34;101625.11;103576;1257;139057;-74
2023/12/16 02:16:11;;;;;;;53.70;28.10;;;;;;;3.25;96.39;101625.17;103321;1254;97864;-74
2023/12/16 02:18:38;;;;;;;55.50;29.30;;;;;;;3.30;96.79;101632.84;103584;1254;106852;-74
2023/12/16 02:21:06;;;;;;;61.00;30.00;;;;;;;3.31;96.55;101627.70;103219;1259;138110;-74
2023/12/16 02:23:33;;;;;;;67.20;31.50;;;;;;;3.32;96.72;101629.10;103789;1256;110324;-74
2023/12/16 02:26:01;;;;;;;62.70;31.20;;;;;;;3.31;96.32;101643.00;103465;1254;137940;-74
2023/12/16 02:28:28;;;;;;;58.60;29.60;;;;;;;3.29;96.39;101648.80;103306;1257;98120;-74
2023/12/16 02:30:54;;;;;;;57.90;28.80;;;;;;;3.30;96.61;101656.90;103313;1253;107504;-73
2023/12/16 02:33:22;;;;;;;57.90;28.40;;;;;;;3.31;96.61;101661.56;101720;1260;1005098;-73
2023/12/16 02:35:49;;;;;;;56.60;28.70;;;;;;;3.31;96.78;101662.42;103317;1256;110893;-73
2023/12/16 02:38:15;;;;;;;57.00;28.20;;;;;;;3.33;96.90;101660.57;103042;1257;139276;-73
2023/12/16 02:40:43;;;;;;;56.80;27.70;;;;;;;3.34;96.83;101663.52;103281;1257;97835;-73
2023/12/16 02:43:10;;;;;;;56.40;26.60;;;;;;;3.34;96.73;101663.85;103237;1254;139004;-73
2023/12/16 02:45:36;;;;;;;56.50;27.80;;;;;;;3.35;96.70;101665.06;103352;1257;97884;-73
2023/12/16 02:48:03;;;;;;;54.40;28.10;;;;;;;3.35;96.81;101664.21;103246;1254;1002092;-74
2023/12/16 02:50:30;;;;;;;55.70;28.50;;;;;;;3.38;97.05;101668.05;103480;1254;139223;-73
2023/12/16 02:52:57;;;;;;;62.20;29.10;;;;;;;3.42;97.13;101665.39;103330;1257;97804;-74
2023/12/16 02:55:24;;;;;;;54.70;29.20;;;;;;;3.48;97.16;101666.19;103391;1254;139001;-73
2023/12/16 02:57:51;;;;;;;57.30;27.50;;;;;;;3.51;97.26;101664.35;103366;1257;97822;-73
2023/12/16 03:00:19;;;;;;;56.60;27.80;;;;;;;3.52;97.07;101666.09;103344;1257;110747;-72
2023/12/16 03:02:45;;;;;;;57.30;28.40;;;;;;;3.50;96.99;101661.59;103113;1256;138633;-72
2023/12/16 03:05:13;;;;;;;55.50;27.20;;;;;;;3.49;96.88;101650.55;103324;1254;97784;-73
2023/12/16 03:07:40;;;;;;;51.40;26.60;;;;;;;3.46;96.92;101641.58;103140;1257;137521;-74
2023/12/16 03:10:09;;;;;;;55.50;26.30;;;;;;;3.42;97.01;101631.35;103423;1254;97851;-74
2023/12/16 03:12:36;;;;;;;54.30;26.10;;;;;;;3.42;97.11;101634.95;103359;1254;111341;-74
2023/12/16 03:15:03;;;;;;;55.40;27.30;;;;;;;3.44;97.43;101628.81;103259;1254;139270;-73
2023/12/16 03:17:30;;;;;;;55.40;25.90;;;;;;;3.45;97.11;101622.46;103243;1254;97933;-73
2023/12/16 03:19:57;;;;;;;57.10;26.60;;;;;;;3.46;97.19;101622.98;103782;1253;140404;-73
2023/12/16 03:22:24;;;;;;;57.80;28.20;;;;;;;3.49;97.35;101624.77;103534;1254;97696;-74
2023/12/16 03:24:51;;;;;;;59.30;30.10;;;;;;;3.58;97.84;101631.13;102564;1257;1002716;-73
2023/12/16 03:27:18;;;;;;;62.70;29.90;;;;;;;3.63;97.59;101632.44;103227;1257;139046;-73
2023/12/16 03:29:44;;;;;;;59.90;29.10;;;;;;;3.64;97.34;101639.84;103113;1259;98442;-74
2023/12/16 03:32:11;;;;;;;56.20;28.90;;;;;;;3.63;97.16;101646.19;103160;1257;138510;-73
2023/12/16 03:34:38;;;;;;;51.90;27.20;;;;;;;3.60;97.06;101652.85;103272;1254;97800;-74
2023/12/16 03:37:05;;;;;;;62.20;28.50;;;;;;;3.58;97.17;101660.35;103296;1257;139620;-74
2023/12/16 03:39:32;;;;;;;56.70;26.80;;;;;;;3.56;97.48;101656.88;102486;1253;1003505;-74
2023/12/16 03:41:59;;;;;;;51.30;25.90;;;;;;;3.52;97.31;101648.39;103296;1257;97803;-74
2023/12/16 03:44:26;;;;;;;52.10;26.60;;;;;;;3.49;97.29;101639.55;103229;1254;138430;-73
2023/12/16 03:46:52;;;;;;;50.40;25.50;;;;;;;3.49;97.75;101635.09;103291;1257;97817;-74
2023/12/16 03:49:20;;;;;;;56.10;25.70;;;;;;;3.51;97.78;101628.76;103216;1256;140414;-74
2023/12/16 03:51:47;;;;;;;46.60;23.40;;;;;;;3.52;98.09;101629.13;103286;1254;106863;-73
2023/12/16 03:54:14;;;;;;;49.40;24.90;;;;;;;3.52;97.97;101632.56;103358;1258;97777;-72
2023/12/16 03:56:41;;;;;;;50.30;24.00;;;;;;;3.59;98.38;101639.91;102491;1253;1003721;-74
2023/12/16 03:59:08;;;;;;;49.30;24.70;;;;;;;3.67;98.40;101648.31;103441;1254;97798;-74
2023/12/16 04:01:35;;;;;;;54.10;24.70;;;;;;;3.68;97.97;101649.02;103260;1254;138181;-73
2023/12/16 04:04:02;;;;;;;52.40;26.50;;;;;;;3.71;98.25;101653.55;103302;1254;107537;-74
2023/12/16 04:06:28;;;;;;;51.90;26.30;;;;;;;3.75;98.11;101647.94;103283;1257;97799;-72
2023/12/16 04:08:55;;;;;;;55.90;25.60;;;;;;;3.75;98.10;101646.21;103231;1254;138945;-73
2023/12/16 04:11:22;;;;;;;53.00;26.10;;;;;;;3.73;98.00;101644.80;103319;1254;97791;-73
2023/12/16 04:13:49;;;;;;;45.50;23.20;;;;;;;3.73;98.09;101647.56;103203;1254;140039;-74
2023/12/16 04:16:16;;;;;;;47.70;23.90;;;;;;;3.72;98.23;101640.84;102507;1256;1003338;-73
2023/12/16 04:18:46;;;;;;;53.30;23.30;;;;;;;3.71;98.24;101652.17;103344;1254;98307;-73
2023/12/16 04:21:13;;;;;;;50.90;24.20;;;;;;;3.71;98.30;101647.00;103159;1254;139096;-73
2023/12/16 04:23:40;;;;;;;47.70;23.50;;;;;;;3.71;98.51;101643.56;103304;1252;97682;-74
2023/12/16 04:26:07;;;;;;;51.10;23.60;;;;;;;3.71;98.52;101636.69;103192;1254;138264;-74
2023/12/16 04:28:34;;;;;;;53.50;24.10;;;;;;;3.71;98.69;101644.08;103285;1254;106731;-74
2023/12/16 04:31:01;;;;;;;49.70;22.90;;;;;;;3.72;98.86;101646.51;103356;1254;99250;-74
2023/12/16 04:33:28;;;;;;;51.10;24.00;;;;;;;3.75;98.88;101648.10;103298;1266;108426;-75
2023/12/16 04:35:55;;;;;;;46.40;22.70;;;;;;;3.75;98.85;101653.78;103343;1257;97822;-74
2023/12/16 04:38:22;;;;;;;53.20;24.50;;;;;;;3.75;98.83;101656.36;103120;1257;137874;-74
2023/12/16 04:40:49;;;;;;;47.60;23.90;;;;;;;3.73;99.13;101662.18;103296;1254;107565;-73
2023/12/16 04:43:16;;;;;;;55.20;24.40;;;;;;;3.73;99.12;101661.48;103273;1254;139752;-75
2023/12/16 04:45:43;;;;;;;45.20;22.90;;;;;;;3.72;99.11;101669.56;102433;1257;1015601;-74
2023/12/16 04:48:10;;;;;;;45.30;22.70;;;;;;;3.71;99.34;101669.54;103302;1254;97698;-74
2023/12/16 04:50:37;;;;;;;44.30;22.00;;;;;;;3.71;99.44;101676.43;103218;1257;138607;-74
2023/12/16 04:53:03;;;;;;;42.80;21.20;;;;;;;3.70;99.36;101681.23;102546;1256;1003439;-74
2023/12/16 04:55:30;;;;;;;43.60;21.10;;;;;;;3.70;99.54;101676.41;102492;1252;1003358;-75
2023/12/16 04:57:57;;;;;;;41.80;21.30;;;;;;;3.73;99.63;101677.67;103283;1254;107052;-75
2023/12/16 05:00:24;;;;;;;41.60;20.70;;;;;;;3.74;99.77;101679.41;103388;1255;97861;-76
2023/12/16 05:02:51;;;;;;;40.00;21.70;;;;;;;3.76;99.74;101684.77;103263;1254;138300;-75
2023/12/16 05:05:18;;;;;;;42.00;21.40;;;;;;;3.76;99.82;101683.23;103361;1254;106633;-74
2023/12/16 05:07:45;;;;;;;41.70;24.00;;;;;;;3.82;99.90;101688.34;103218;1254;138285;-74
2023/12/16 05:10:12;;;;;;;46.70;21.50;;;;;;;3.82;99.92;101691.44;103342;1254;106794;-74
2023/12/16 05:12:41;;;;;;;45.40;22.40;;;;;;;3.80;99.52;101691.40;103230;1254;97908;-75
2023/12/16 05:15:09;;;;;;;40.90;20.80;;;;;;;3.77;99.97;101690.84;103187;1257;138776;-74
2023/12/16 05:17:36;;;;;;;38.40;20.60;;;;;;;3.76;99.86;101689.77;102453;1254;1003039;-74
2023/12/16 05:20:04;;;;;;;37.40;19.80;;;;;;;3.77;99.97;101689.61;102398;1257;1003181;-74
2023/12/16 05:22:33;;;;;;;38.40;20.30;;;;;;;3.80;99.99;101691.23;103278;1254;108222;-74
2023/12/16 05:25:01;;;;;;;38.10;19.70;;;;;;;3.81;99.99;101688.32;103389;1257;97784;-73
2023/12/16 05:27:29;;;;;;;42.60;19.50;;;;;;;3.84;100.00;101688.38;103505;1254;110288;-74
2023/12/16 05:29:56;;;;;;;38.50;19.60;;;;;;;3.87;100.00;101689.98;103278;1254;109152;-74
2023/12/16 05:32:23;;;;;;;39.40;20.50;;;;;;;3.91;100.00;101690.05;103259;1254;138502;-74
2023/12/16 05:34:50;;;;;;;35.90;21.00;;;;;;;3.96;100.00;101693.23;103296;1253;108787;-74
2023/12/16 05:37:17;;;;;;;41.50;21.00;;;;;;;4.00;100.00;101697.44;103195;1254;139443;-74
2023/12/16 05:39:44;;;;;;;39.50;21.60;;;;;;;4.00;99.94;101702.27;103291;1253;110552;-74
2023/12/16 05:42:11;;;;;;;41.10;20.10;;;;;;;3.98;99.97;101702.23;102474;1254;1003369;-74
2023/12/16 05:44:37;;;;;;;36.80;20.10;;;;;;;3.97;99.98;101701.88;103263;1256;139055;-75
2023/12/16 05:47:04;;;;;;;39.90;19.80;;;;;;;3.96;99.95;101693.41;103254;1254;107364;-73
2023/12/16 05:49:31;;;;;;;39.00;19.40;;;;;;;3.98;100.00;101694.83;102447;1254;1003623;-75
2023/12/16 05:51:58;;;;;;;36.80;20.30;;;;;;;4.00;100.00;101693.83;103283;1253;111599;-74
2023/12/16 05:54:25;;;;;;;35.20;19.10;;;;;;;4.00;100.00;101694.70;103280;1257;107598;-74
2023/12/16 05:56:52;;;;;;;38.30;19.90;;;;;;;4.04;100.00;101696.48;103223;1254;140201;-75
2023/12/16 05:59:19;;;;;;;36.10;19.40;;;;;;;4.08;100.00;101696.02;103219;1254;107687;-74
2023/12/16 06:01:45;;;;;;;35.30;18.30;;;;;;;4.10;100.00;101697.43;103124;1256;139125;-75
2023/12/16 06:04:13;;;;;;;38.80;20.00;;;;;;;4.13;100.00;101691.81;103295;1257;112336;-76
2023/12/16 06:06:40;;;;;;;39.30;21.70;;;;;;;4.15;100.00;101692.55;103266;1254;107083;-74
2023/12/16 06:09:07;;;;;;;43.10;21.50;;;;;;;4.15;100.00;101696.69;103160;1254;138267;-73
2023/12/16 06:11:34;;;;;;;33.50;19.60;;;;;;;4.12;99.99;101697.80;103274;1254;106800;-75
2023/12/16 06:14:01;;;;;;;39.70;20.50;;;;;;;4.09;99.95;101697.94;102467;1256;1002887;-73
2023/12/16 06:16:28;;;;;;;36.00;20.10;;;;;;;4.07;100.00;101699.96;103361;1254;110352;-73
2023/12/16 06:18:55;;;;;;;35.60;18.60;;;;;;;4.09;100.00;101708.27;102522;1257;1002928;-76
2023/12/16 06:21:22;;;;;;;34.80;19.90;;;;;;;4.10;100.00;101712.41;102321;1253;1016112;-74
2023/12/16 06:23:49;;;;;;;38.90;20.80;;;;;;;4.11;100.00;101710.02;103124;1254;108714;-74
2023/12/16 06:26:16;;;;;;;40.40;19.80;;;;;;;4.13;100.00;101712.65;102995;1259;140176;-75
2023/12/16 06:28:43;;;;;;;36.20;20.20;;;;;;;4.17;100.00;101714.96;103268;1254;110722;-74
2023/12/16 06:31:17;;;;;;;43.80;21.30;;;;;;;4.22;100.00;101713.66;103138;1254;138286;-74
2023/12/16 06:33:44;;;;;;;35.50;21.10;;;;;;;4.25;100.00;101717.33;103302;1257;98425;-71
2023/12/16 06:36:12;;;;;;;37.60;21.30;;;;;;;4.21;100.00;101717.09;101643;1257;1003360;-71
2023/12/16 06:38:39;;;;;;;38.00;20.70;;;;;;;4.17;100.00;101719.27;103195;1257;139091;-71
2023/12/16 06:41:06;;;;;;;39.40;19.80;;;;;;;4.14;100.00;101721.28;103384;1252;110432;-72
2023/12/16 06:43:33;;;;;;;35.40;19.60;;;;;;;4.14;100.00;101727.83;103056;1253;140493;-71
2023/12/16 06:46:00;;;;;;;35.80;18.40;;;;;;;4.16;100.00;101736.11;103163;1254;98498;-72
2023/12/16 06:48:27;;;;;;;37.30;19.10;;;;;;;4.18;100.00;101736.51;103216;1256;107063;-71
2023/12/16 06:50:57;;;;;;;33.00;18.80;;;;;;;4.23;100.00;101736.58;103078;1256;139293;-70
2023/12/16 06:53:24;;;;;;;36.00;20.80;;;;;;;4.26;100.00;101731.45;103182;1257;110668;-73
2023/12/16 06:55:52;;;;;;;36.80;20.90;;;;;;;4.27;100.00;101726.30;103072;1257;138285;-74
2023/12/16 06:58:19;;;;;;;38.50;20.30;;;;;;;4.27;100.00;101724.06;103277;1254;98326;-73
2023/12/16 07:00:46;;;;;;;33.70;19.00;;;;;;;4.27;100.00;101723.89;103247;1257;107107;-73
2023/12/16 07:03:13;;;;;;;35.10;18.70;;;;;;;4.24;100.00;101725.73;103138;1252;139462;-75
2023/12/16 07:05:41;;;;;;;37.20;18.70;;;;;;;4.21;100.00;101736.55;103153;1253;110208;-76
2023/12/16 07:08:08;;;;;;;32.10;19.00;;;;;;;4.22;100.00;101731.91;103209;1254;139093;-75
2023/12/16 07:10:34;;;;;;;34.60;18.80;;;;;;;4.26;100.00;101741.63;103339;1257;97651;-79
2023/12/16 07:13:01;;;;;;;35.40;18.40;;;;;;;4.32;100.00;101740.19;103267;1253;107280;-75
2023/12/16 07:15:28;;;;;;;37.30;20.00;;;;;;;4.36;100.00;101738.88;102365;1254;1003192;-76
2023/12/16 07:17:55;;;;;;;39.90;21.20;;;;;;;4.38;100.00;101735.98;103276;1257;112373;-76
2023/12/16 07:20:22;;;;;;;37.70;22.00;;;;;;;4.40;100.00;101737.21;102922;1252;138437;-76
2023/12/16 07:22:49;;;;;;;34.40;19.50;;;;;;;4.40;100.00;101739.97;103089;1254;97791;-74
2023/12/16 07:25:16;;;;;;;35.80;20.80;;;;;;;4.39;100.00;101737.71;103064;1253;138979;-75
2023/12/16 07:27:43;;;;;;;34.80;19.00;;;;;;;4.41;100.00;101743.27;103257;1257;97806;-74
2023/12/16 07:30:12;;;;;;;33.00;19.30;;;;;;;4.37;100.00;101743.72;103318;1253;112062;-74
2023/12/16 07:32:40;;;;;;;34.30;18.30;;;;;;;4.40;100.00;101744.27;103582;1257;141184;-75
2023/12/16 07:35:12;;;;;;;33.00;17.70;;;;;;;4.44;100.00;101746.05;103258;1255;97707;-74
2023/12/16 07:37:39;;;;;;;32.40;19.50;;;;;;;4.48;100.00;101748.38;103220;1253;138482;-74
2023/12/16 07:40:09;;;;;;;32.90;19.70;;;;;;;4.50;100.00;101739.98;103248;1254;97863;-74
2023/12/16 07:42:36;;;;;;;38.20;21.20;;;;;;;4.52;100.00;101731.39;103353;1253;111349;-73
2023/12/16 07:45:08;;;;;;;34.70;19.10;;;;;;;4.53;100.00;101732.27;103071;1257;138681;-74
2023/12/16 07:47:35;;;;;;;37.00;20.40;;;;;;;4.54;100.00;101738.48;103429;1252;97787;-72
2023/12/16 07:50:03;;;;;;;32.00;18.10;;;;;;;4.53;100.00;101737.95;103141;1254;138776;-73
2023/12/16 07:52:30;;;;;;;29.10;18.10;;;;;;;4.54;100.00;101741.41;103363;1253;98595;-74
2023/12/16 07:54:57;;;;;;;30.00;17.80;;;;;;;4.57;100.00;101741.11;103255;1257;110343;-72
2023/12/16 07:57:25;;;;;;;28.00;16.90;;;;;;;4.58;100.00;101738.71;103104;1257;138758;-72
2023/12/16 07:59:52;;;;;;;31.60;16.90;;;;;;;4.66;100.00;101750.39;103141;1259;97864;-72
2023/12/16 08:02:20;;;;;;;35.30;19.00;;;;;;;4.74;100.00;101749.66;103092;1254;138745;-72
2023/12/16 08:04:48;;;;;;;33.20;19.30;;;;;;;4.79;100.00;101747.31;103343;1256;97837;-73
2023/12/16 08:07:15;;;;;;;37.10;20.30;;;;;;;4.83;100.00;101752.05;103275;1253;138801;-73
2023/12/16 08:09:42;;;;;;;38.90;21.60;;;;;;;4.88;100.00;101750.56;103302;1254;108562;-73
2023/12/16 08:12:09;;;;;;;36.70;19.20;;;;;;;4.89;100.00;101756.27;103345;1253;97845;-72
2023/12/16 08:14:37;;;;;;;33.40;18.40;;;;;;;4.92;100.00;101760.79;103148;1257;138549;-72
2023/12/16 08:17:04;;;;;;;31.80;17.80;;;;;;;4.93;100.00;101765.80;103313;1257;97775;-73
2023/12/16 08:19:31;;;;;;;31.90;16.70;;;;;;;4.94;99.98;101772.88;103219;1253;139527;-73
2023/12/16 08:21:59;;;;;;;29.70;16.80;;;;;;;4.96;99.98;101775.50;103205;1254;107413;-73
2023/12/16 08:24:26;;;;;;;30.40;18.00;;;;;;;5.01;99.89;101772.63;103291;1254;97718;-74
2023/12/16 08:26:53;;;;;;;28.70;16.80;;;;;;;5.05;99.95;101762.20;103078;1254;137863;-73
2023/12/16 08:29:20;;;;;;;29.90;16.20;;;;;;;5.09;99.48;101761.04;103265;1253;97863;-73
2023/12/16 08:31:47;;;;;;;30.10;15.70;;;;;;;5.10;98.78;101767.27;103169;1254;138093;-73
2023/12/16 08:34:14;;;;;;;26.20;15.30;;;;;;;5.12;98.75;101774.89;103271;1253;107859;-73
2023/12/16 08:36:42;;;;;;;26.20;14.50;;;;;;;5.20;98.50;101780.00;103201;1254;97826;-74
2023/12/16 08:39:09;;;;;;;29.90;14.40;;;;;;;5.31;98.50;101773.25;103127;1253;138715;-74
2023/12/16 08:41:35;;;;;;;33.20;14.80;;;;;;;5.56;98.50;101772.38;103178;1253;97798;-72
2023/12/16 08:44:03;;;;;;;28.10;13.90;;;;;;;5.91;98.60;101766.78;103163;1254;138664;-72
2023/12/16 08:46:30;;;;;;;25.50;13.40;;;;;;;6.27;97.74;101771.83;103223;1254;106999;-73
2023/12/16 08:48:57;;;;;;;25.30;13.90;;;;;;;6.60;96.70;101765.23;103261;1257;98325;-73
2023/12/16 08:51:25;;;;;;;29.70;15.20;;;;;;;6.94;96.24;101771.35;103153;1253;137985;-72
2023/12/16 08:53:54;;;;;;;26.40;15.00;;;;;;;7.27;95.37;101771.23;103318;1254;97762;-73
2023/12/16 08:56:21;;;;;;;26.30;16.00;;;;;;;7.58;94.84;101769.65;103041;1253;137980;-71
2023/12/16 08:58:48;;;;;;;30.70;16.90;;;;;;;7.89;94.18;101765.97;103214;1253;106524;-71
2023/12/16 09:01:15;;;;;;;32.00;16.50;;;;;;;8.18;93.32;101772.96;102950;1253;138160;-73
2023/12/16 09:03:45;;;;;;;32.50;17.50;;;;;;;8.31;91.74;101771.44;102381;1252;1002931;-72
2023/12/16 09:06:12;;;;;;;31.00;16.90;;;;;;;8.30;90.10;101777.51;103309;1254;97925;-72
2023/12/16 09:08:39;;;;;;;29.90;16.00;;;;;;;8.27;89.70;101779.59;103160;1254;137997;-73
2023/12/16 09:11:06;;;;;;;30.30;15.60;;;;;;;8.26;88.94;101771.27;103274;1253;108059;-71
2023/12/16 09:13:33;;;;;;;30.80;16.30;;;;;;;8.20;88.28;101772.27;103072;1253;139214;-73
2023/12/16 09:16:01;;;;;;;31.10;17.20;;;;;;;8.06;88.00;101771.73;103297;1257;106744;-72
2023/12/16 09:18:28;;;;;;;31.80;17.80;;;;;;;7.93;87.75;101773.42;103271;1257;97890;-72
2023/12/16 09:20:55;;;;;;;35.00;19.30;;;;;;;7.76;87.66;101782.90;103225;1257;138037;-72
2023/12/16 09:23:22;;;;;;;38.70;18.60;;;;;;;7.62;87.75;101788.37;103234;1257;108015;-72
2023/12/16 09:25:49;;;;;;;35.50;19.30;;;;;;;7.51;87.96;101795.06;103217;1254;140042;-71
2023/12/16 09:28:17;;;;;;;31.20;18.40;;;;;;;7.40;88.41;101795.89;103230;1253;106944;-73
2023/12/16 09:30:44;;;;;;;31.10;16.10;;;;;;;7.30;88.25;101797.54;103250;1254;97695;-72
2023/12/16 09:33:10;;;;;;;34.10;16.60;;;;;;;7.18;88.44;101795.23;103136;1256;138854;-73
2023/12/16 09:35:37;;;;;;;32.50;16.90;;;;;;;7.12;88.50;101796.91;103173;1256;108094;-73
2023/12/16 09:38:05;;;;;;;30.90;16.50;;;;;;;7.03;88.38;101804.11;103242;1253;138139;-72
2023/12/16 09:40:32;;;;;;;32.20;16.70;;;;;;;6.97;88.78;101803.54;103369;1253;108954;-73
2023/12/16 09:43:10;;;;;;;32.30;17.30;;;;;;;6.91;88.82;101797.27;103289;1254;97874;-73
2023/12/16 09:45:38;;;;;;;30.30;16.50;;;;;;;6.85;88.79;101800.86;103304;1253;110838;-73
2023/12/16 09:48:06;;;;;;;32.80;16.20;;;;;;;6.74;88.59;101796.80;103226;1253;106959;-72
2023/12/16 09:50:34;;;;;;;31.80;15.80;;;;;;;6.70;89.81;101789.85;103954;1254;139033;-73
2023/12/16 09:53:01;;;;;;;28.60;14.60;;;;;;;6.64;89.28;101788.92;102727;1254;1003413;-73
2023/12/16 09:55:27;;;;;;;30.20;15.10;;;;;;;6.55;89.10;101787.30;103235;1252;139000;-74
2023/12/16 09:57:58;;;;;;;29.10;12.90;;;;;;;6.48;89.34;101784.65;102579;1257;1002988;-72
2023/12/16 10:00:26;;;;;;;27.70;13.00;;;;;;;6.43;89.31;101781.30;103251;1256;107079;-72
2023/12/16 10:02:56;;;;;;;29.90;12.90;;;;;;;6.36;89.27;101779.70;102416;1253;1003280;-72
2023/12/16 10:05:26;;;;;;;23.80;12.70;;;;;;;6.30;89.32;101786.55;103200;1257;108117;-74
2023/12/16 10:07:57;;;;;;;26.40;12.80;;;;;;;6.24;89.56;101786.65;103104;1254;139170;-72
2023/12/16 10:10:24;;;;;;;24.60;12.00;;;;;;;6.24;89.68;101784.23;103355;1253;112738;-73
2023/12/16 10:12:53;;;;;;;25.40;12.00;;;;;;;6.26;89.80;101783.02;103286;1257;108255;-73
2023/12/16 10:15:31;;;;;;;27.80;13.30;;;;;;;6.27;89.90;101783.56;103301;1257;138923;-73
2023/12/16 10:17:58;;;;;;;28.80;14.00;;;;;;;6.27;89.79;101781.16;103261;1253;106418;-73
2023/12/16 10:20:25;;;;;;;29.70;14.10;;;;;;;6.24;89.88;101777.31;104440;1256;138078;-73
2023/12/16 10:22:53;;;;;;;28.50;14.70;;;;;;;6.20;89.88;101778.33;103642;1254;111674;-73
2023/12/16 10:25:21;;;;;;;27.10;13.00;;;;;;;6.19;90.14;101770.89;102582;1252;1002951;-72
2023/12/16 10:27:49;;;;;;;30.30;13.20;;;;;;;6.18;90.08;101764.66;103493;1253;98408;-72
2023/12/16 10:30:16;;;;;;;27.20;12.50;;;;;;;6.19;90.19;101768.98;103662;1253;108364;-73
2023/12/16 10:32:44;;;;;;;27.30;14.10;;;;;;;6.22;90.32;101769.36;103568;1253;138752;-73
2023/12/16 10:35:11;;;;;;;28.50;12.70;;;;;;;6.26;90.36;101769.04;104454;1253;111268;-73
2023/12/16 10:37:47;;;;;;;22.80;13.10;;;;;;;6.29;90.41;101767.02;103463;1254;138128;-74
2023/12/16 10:40:18;;;;;;;28.80;13.70;;;;;;;6.35;90.38;101766.91;102561;1253;1003267;-74
2023/12/16 10:42:45;;;;;;;25.90;14.20;;;;;;;6.37;90.04;101760.52;104345;1254;106256;-73
2023/12/16 10:45:13;;;;;;;31.50;16.60;;;;;;;6.40;90.03;101757.43;104474;1255;139901;-73
2023/12/16 10:47:42;;;;;;;29.40;15.00;;;;;;;6.36;89.94;101761.04;103240;1256;111313;-72
2023/12/16 10:50:13;;;;;;;27.70;14.80;;;;;;;6.31;89.95;101754.42;104331;1253;138527;-73
2023/12/16 10:52:46;;;;;;;30.60;15.80;;;;;;;6.32;90.11;101750.64;104535;1257;97064;-73
2023/12/16 10:55:23;;;;;;;28.90;15.30;;;;;;;6.29;90.12;101751.29;102780;1252;1002999;-72
2023/12/16 10:57:49;;;;;;;;;;;;;;;6.27;90.31;101752.65;103213;1254;97834;-72
2023/12/16 11:00:24;;;;;;;27.80;15.20;;;;;;;6.25;90.28;101751.07;103935;1253;111660;-71
2023/12/16 11:03:05;;;;;;;28.20;15.90;;;;;;;6.21;90.46;101747.77;103424;1257;138790;-72